sensor_id;sensor_type;location;lat;lon;timestamp;pressure;altitude;pressure_sealevel;temperature;humidity
10127;BME280;13080;42.608;23.362;2023-02-19T00:01:18;152410.84;;;5.17;66.75
10127;BME280;13080;42.608;23.362;2023-02-19T00:03:47;152421.19;;;5.21;66.78
10127;BME280;13080;42.608;23.362;2023-02-19T00:06:17;152423.81;;;5.23;66.92
10127;BME280;13080;42.608;23.362;2023-02-19T00:08:44;152439.28;;;5.29;67.02
10127;BME280;13080;42.608;23.362;2023-02-19T00:11:13;152478.09;;;5.44;65.67
10127;BME280;13080;42.608;23.362;2023-02-19T00:13:41;152484.56;;;5.47;66.30
10127;BME280;13080;42.608;23.362;2023-02-19T00:16:12;152467.75;;;5.40;65.80
10127;BME280;13080;42.608;23.362;2023-02-19T00:18:40;152453.53;;;5.34;66.25
10127;BME280;13080;42.608;23.362;2023-02-19T00:21:07;152452.25;;;5.34;66.61
10127;BME280;13080;42.608;23.362;2023-02-19T00:23:34;152447.06;;;5.32;66.50
10127;BME280;13080;42.608;23.362;2023-02-19T00:26:02;152445.75;;;5.31;67.27
10127;BME280;13080;42.608;23.362;2023-02-19T00:28:29;152436.72;;;5.28;66.67
10127;BME280;13080;42.608;23.362;2023-02-19T00:30:56;152443.19;;;5.30;66.02
10127;BME280;13080;42.608;23.362;2023-02-19T00:33:30;152457.44;;;5.36;65.78
10127;BME280;13080;42.608;23.362;2023-02-19T00:35:59;152452.25;;;5.34;66.52
10127;BME280;13080;42.608;23.362;2023-02-19T00:38:26;152476.81;;;5.44;67.30
10127;BME280;13080;42.608;23.362;2023-02-19T00:40:53;152476.81;;;5.44;66.14
10127;BME280;13080;42.608;23.362;2023-02-19T00:43:19;152478.09;;;5.44;65.46
10127;BME280;13080;42.608;23.362;2023-02-19T00:45:46;152478.09;;;5.44;65.08
10127;BME280;13080;42.608;23.362;2023-02-19T00:48:13;152497.53;;;5.52;64.50
10127;BME280;13080;42.608;23.362;2023-02-19T00:50:41;152497.53;;;5.52;65.20
10127;BME280;13080;42.608;23.362;2023-02-19T00:53:07;152496.19;;;5.51;65.21
10127;BME280;13080;42.608;23.362;2023-02-19T00:55:34;152500.09;;;5.53;64.68
10127;BME280;13080;42.608;23.362;2023-02-19T00:58:01;152489.72;;;5.49;64.79
10127;BME280;13080;42.608;23.362;2023-02-19T01:00:28;152488.44;;;5.48;64.91
10127;BME280;13080;42.608;23.362;2023-02-19T01:02:55;152465.19;;;5.39;65.51
10127;BME280;13080;42.608;23.362;2023-02-19T01:05:21;152454.81;;;5.35;65.68
10127;BME280;13080;42.608;23.362;2023-02-19T01:07:49;152450.91;;;5.33;65.88
10127;BME280;13080;42.608;23.362;2023-02-19T01:10:16;152419.91;;;5.21;66.58
10127;BME280;13080;42.608;23.362;2023-02-19T01:12:43;152395.34;;;5.11;67.52
10127;BME280;13080;42.608;23.362;2023-02-19T01:15:10;152395.34;;;5.11;67.44
10127;BME280;13080;42.608;23.362;2023-02-19T01:17:36;152368.19;;;5.00;67.61
10127;BME280;13080;42.608;23.362;2023-02-19T01:20:04;152378.53;;;5.05;67.93
10127;BME280;13080;42.608;23.362;2023-02-19T01:22:30;152370.75;;;5.02;67.71
10127;BME280;13080;42.608;23.362;2023-02-19T01:24:58;152333.28;;;4.87;68.02
10127;BME280;13080;42.608;23.362;2023-02-19T01:27:25;152321.66;;;4.82;68.16
10127;BME280;13080;42.608;23.362;2023-02-19T01:29:52;152344.91;;;4.91;67.49
10127;BME280;13080;42.608;23.362;2023-02-19T01:32:20;152334.56;;;4.87;67.61
10127;BME280;13080;42.608;23.362;2023-02-19T01:34:47;152300.94;;;4.74;68.59
10127;BME280;13080;42.608;23.362;2023-02-19T01:37:14;152276.41;;;4.64;68.38
10127;BME280;13080;42.608;23.362;2023-02-19T01:39:40;152254.41;;;4.55;68.44
10127;BME280;13080;42.608;23.362;2023-02-19T01:42:12;152229.81;;;4.46;68.95
10127;BME280;13080;42.608;23.362;2023-02-19T01:47:43;152189.75;;;4.30;69.89
10127;BME280;13080;42.608;23.362;2023-02-19T01:50:10;152180.75;;;4.26;69.98
10127;BME280;13080;42.608;23.362;2023-02-19T01:52:37;152165.22;;;4.20;70.54
10127;BME280;13080;42.608;23.362;2023-02-19T01:55:05;152174.25;;;4.24;70.15
10127;BME280;13080;42.608;23.362;2023-02-19T01:57:40;152180.75;;;4.26;69.84
10127;BME280;13080;42.608;23.362;2023-02-19T02:00:09;152154.88;;;4.16;70.44
10127;BME280;13080;42.608;23.362;2023-02-19T02:02:38;152138.06;;;4.09;71.34
10127;BME280;13080;42.608;23.362;2023-02-19T02:05:09;152122.56;;;4.03;71.34
10127;BME280;13080;42.608;23.362;2023-02-19T02:07:38;152118.72;;;4.02;71.44
10127;BME280;13080;42.608;23.362;2023-02-19T02:10:22;152132.91;;;4.07;71.16
10127;BME280;13080;42.608;23.362;2023-02-19T02:12:55;152152.31;;;4.15;71.41
10127;BME280;13080;42.608;23.362;2023-02-19T02:15:21;152152.31;;;4.15;71.79
10127;BME280;13080;42.608;23.362;2023-02-19T02:17:53;152185.91;;;4.28;70.61
10127;BME280;13080;42.608;23.362;2023-02-19T02:20:32;152211.72;;;4.38;70.36
10127;BME280;13080;42.608;23.362;2023-02-19T02:23:07;152242.78;;;4.51;69.73
10127;BME280;13080;42.608;23.362;2023-02-19T02:25:58;152273.78;;;4.63;69.36
10127;BME280;13080;42.608;23.362;2023-02-19T02:28:47;152293.19;;;4.71;69.24
10127;BME280;13080;42.608;23.362;2023-02-19T02:31:22;152320.31;;;4.82;68.94
10127;BME280;13080;42.608;23.362;2023-02-19T02:33:57;152350.09;;;4.93;67.73
10127;BME280;13080;42.608;23.362;2023-02-19T02:36:29;152350.09;;;4.93;67.73
10127;BME280;13080;42.608;23.362;2023-02-19T02:38:57;152350.09;;;4.93;68.13
10127;BME280;13080;42.608;23.362;2023-02-19T02:41:25;152338.47;;;4.89;68.69
10127;BME280;13080;42.608;23.362;2023-02-19T02:43:52;152320.31;;;4.82;70.56
10127;BME280;13080;42.608;23.362;2023-02-19T02:46:24;152311.28;;;4.78;69.25
10127;BME280;13080;42.608;23.362;2023-02-19T02:48:54;152356.53;;;4.96;68.54
10127;BME280;13080;42.608;23.362;2023-02-19T02:51:25;152374.63;;;5.03;68.11
10127;BME280;13080;42.608;23.362;2023-02-19T02:53:56;152339.75;;;4.89;68.39
10127;BME280;13080;42.608;23.362;2023-02-19T02:56:43;152325.50;;;4.84;68.46
10127;BME280;13080;42.608;23.362;2023-02-19T02:59:13;152335.84;;;4.88;68.24
10127;BME280;13080;42.608;23.362;2023-02-19T03:01:44;152321.66;;;4.82;69.03
10127;BME280;13080;42.608;23.362;2023-02-19T03:04:32;152319.03;;;4.81;68.85
10127;BME280;13080;42.608;23.362;2023-02-19T03:07:04;152347.47;;;4.92;67.99
10127;BME280;13080;42.608;23.362;2023-02-19T03:09:35;152329.38;;;4.85;68.77
10127;BME280;13080;42.608;23.362;2023-02-19T03:12:06;152344.91;;;4.91;67.60
10127;BME280;13080;42.608;23.362;2023-02-19T03:14:56;152359.09;;;4.97;67.63
10127;BME280;13080;42.608;23.362;2023-02-19T03:17:47;152390.16;;;5.09;66.35
10127;BME280;13080;42.608;23.362;2023-02-19T03:20:33;152423.81;;;5.23;64.99
10127;BME280;13080;42.608;23.362;2023-02-19T03:23:01;152453.53;;;5.34;65.12
10127;BME280;13080;42.608;23.362;2023-02-19T03:25:31;152454.81;;;5.35;64.95
10127;BME280;13080;42.608;23.362;2023-02-19T03:28:19;152456.09;;;5.35;64.79
10127;BME280;13080;42.608;23.362;2023-02-19T03:31:08;152453.53;;;5.34;64.79
10127;BME280;13080;42.608;23.362;2023-02-19T03:33:41;152470.34;;;5.41;64.34
10127;BME280;13080;42.608;23.362;2023-02-19T03:36:11;152471.63;;;5.41;64.77
10127;BME280;13080;42.608;23.362;2023-02-19T03:38:42;152443.19;;;5.30;64.81
10127;BME280;13080;42.608;23.362;2023-02-19T03:41:18;152409.53;;;5.17;65.85
10127;BME280;13080;42.608;23.362;2023-02-19T03:43:51;152379.81;;;5.05;66.50
10127;BME280;13080;42.608;23.362;2023-02-19T03:46:24;152375.91;;;5.04;66.47
10127;BME280;13080;42.608;23.362;2023-02-19T03:49:01;152348.75;;;4.93;67.05
10127;BME280;13080;42.608;23.362;2023-02-19T03:51:36;152337.13;;;4.88;67.89
10127;BME280;13080;42.608;23.362;2023-02-19T03:54:11;152315.13;;;4.79;67.92
10127;BME280;13080;42.608;23.362;2023-02-19T03:56:44;152294.50;;;4.71;68.48
10127;BME280;13080;42.608;23.362;2023-02-19T03:59:15;152280.25;;;4.66;69.09
10127;BME280;13080;42.608;23.362;2023-02-19T04:01:46;152278.97;;;4.65;69.42
10127;BME280;13080;42.608;23.362;2023-02-19T04:04:18;152300.94;;;4.74;69.33
10127;BME280;13080;42.608;23.362;2023-02-19T04:06:51;152277.69;;;4.65;69.84
10127;BME280;13080;42.608;23.362;2023-02-19T04:09:21;152256.97;;;4.56;69.74
10127;BME280;13080;42.608;23.362;2023-02-19T04:11:49;152227.25;;;4.45;69.45
10127;BME280;13080;42.608;23.362;2023-02-19T04:14:20;152216.91;;;4.41;69.85
10127;BME280;13080;42.608;23.362;2023-02-19T04:16:51;152209.16;;;4.37;70.46
10127;BME280;13080;42.608;23.362;2023-02-19T04:19:23;152191.03;;;4.30;70.63
10127;BME280;13080;42.608;23.362;2023-02-19T04:21:52;152160.03;;;4.18;70.71
10127;BME280;13080;42.608;23.362;2023-02-19T04:24:22;152136.78;;;4.09;71.60
10127;BME280;13080;42.608;23.362;2023-02-19T04:26:50;152121.28;;;4.03;71.63
10127;BME280;13080;42.608;23.362;2023-02-19T04:29:18;152108.38;;;3.98;71.38
10127;BME280;13080;42.608;23.362;2023-02-19T04:31:44;152095.47;;;3.92;71.42
10127;BME280;13080;42.608;23.362;2023-02-19T04:34:11;152099.31;;;3.94;71.47
10127;BME280;13080;42.608;23.362;2023-02-19T04:36:39;152113.53;;;4.00;71.29
10127;BME280;13080;42.608;23.362;2023-02-19T04:39:06;152091.56;;;3.91;71.76
10127;BME280;13080;42.608;23.362;2023-02-19T04:41:33;152079.94;;;3.86;71.67
10127;BME280;13080;42.608;23.362;2023-02-19T04:44:00;152074.78;;;3.84;72.47
10127;BME280;13080;42.608;23.362;2023-02-19T04:46:26;152056.69;;;3.77;72.85
10127;BME280;13080;42.608;23.362;2023-02-19T04:48:53;152048.91;;;3.74;72.61
10127;BME280;13080;42.608;23.362;2023-02-19T04:51:20;152056.69;;;3.77;72.48
10127;BME280;13080;42.608;23.362;2023-02-19T04:53:48;152039.91;;;3.70;72.90
10127;BME280;13080;42.608;23.362;2023-02-19T04:56:16;152030.84;;;3.67;73.06
10127;BME280;13080;42.608;23.362;2023-02-19T04:58:43;152030.84;;;3.67;73.12
10127;BME280;13080;42.608;23.362;2023-02-19T05:01:11;152050.25;;;3.74;73.10
10127;BME280;13080;42.608;23.362;2023-02-19T05:03:38;152061.88;;;3.79;72.66
10127;BME280;13080;42.608;23.362;2023-02-19T05:06:06;152076.06;;;3.85;73.05
10127;BME280;13080;42.608;23.362;2023-02-19T05:08:33;152113.53;;;4.00;72.49
10127;BME280;13080;42.608;23.362;2023-02-19T05:11:03;152165.22;;;4.20;71.86
10127;BME280;13080;42.608;23.362;2023-02-19T05:13:31;152180.75;;;4.26;72.06
10127;BME280;13080;42.608;23.362;2023-02-19T05:15:59;152213.03;;;4.39;71.58
10127;BME280;13080;42.608;23.362;2023-02-19T05:18:27;152298.34;;;4.73;70.80
10127;BME280;13080;42.608;23.362;2023-02-19T05:20:56;152324.22;;;4.83;70.83
10127;BME280;13080;42.608;23.362;2023-02-19T05:23:24;152353.94;;;4.95;70.12
10127;BME280;13080;42.608;23.362;2023-02-19T05:25:51;152428.97;;;5.25;69.84
10127;BME280;13080;42.608;23.362;2023-02-19T05:28:20;152502.72;;;5.54;69.09
10127;BME280;13080;42.608;23.362;2023-02-19T05:30:53;152634.72;;;6.06;67.03
10127;BME280;13080;42.608;23.362;2023-02-19T05:33:22;152735.72;;;6.46;65.21
10127;BME280;13080;42.608;23.362;2023-02-19T05:35:51;152753.81;;;6.53;64.15
10127;BME280;13080;42.608;23.362;2023-02-19T05:38:18;152748.63;;;6.51;64.56
10127;BME280;13080;42.608;23.362;2023-02-19T05:40:45;152731.81;;;6.44;65.48
10127;BME280;13080;42.608;23.362;2023-02-19T05:43:12;152731.81;;;6.44;64.83
10127;BME280;13080;42.608;23.362;2023-02-19T05:45:40;152733.09;;;6.45;64.57
10127;BME280;13080;42.608;23.362;2023-02-19T05:48:07;152743.44;;;6.49;64.88
10127;BME280;13080;42.608;23.362;2023-02-19T05:50:35;152726.63;;;6.42;64.99
10127;BME280;13080;42.608;23.362;2023-02-19T05:53:03;152703.31;;;6.33;65.42
10127;BME280;13080;42.608;23.362;2023-02-19T05:55:33;152708.50;;;6.35;65.79
10127;BME280;13080;42.608;23.362;2023-02-19T05:58:01;152731.81;;;6.44;64.42
10127;BME280;13080;42.608;23.362;2023-02-19T06:00:28;152771.94;;;6.60;64.17
10127;BME280;13080;42.608;23.362;2023-02-19T06:02:56;152800.41;;;6.72;63.50
10127;BME280;13080;42.608;23.362;2023-02-19T06:05:23;152822.44;;;6.80;63.25
10127;BME280;13080;42.608;23.362;2023-02-19T06:07:49;152847.03;;;6.90;62.76
10127;BME280;13080;42.608;23.362;2023-02-19T06:10:16;152883.31;;;7.04;62.88
10127;BME280;13080;42.608;23.362;2023-02-19T06:12:43;152964.91;;;7.37;62.11
10127;BME280;13080;42.608;23.362;2023-02-19T06:15:10;152967.53;;;7.38;61.50
10127;BME280;13080;42.608;23.362;2023-02-19T06:17:37;152990.84;;;7.47;61.60
10127;BME280;13080;42.608;23.362;2023-02-19T06:20:05;153012.88;;;7.56;61.07
10127;BME280;13080;42.608;23.362;2023-02-19T06:22:32;152985.66;;;7.45;61.53
10127;BME280;13080;42.608;23.362;2023-02-19T06:24:59;152963.63;;;7.36;62.16
10127;BME280;13080;42.608;23.362;2023-02-19T06:27:26;152946.78;;;7.29;62.30
10127;BME280;13080;42.608;23.362;2023-02-19T06:29:52;152923.47;;;7.20;62.72
10127;BME280;13080;42.608;23.362;2023-02-19T06:32:19;152910.53;;;7.15;63.25
10127;BME280;13080;42.608;23.362;2023-02-19T06:34:46;152905.34;;;7.13;63.32
10127;BME280;13080;42.608;23.362;2023-02-19T06:37:14;152922.19;;;7.20;63.46
10127;BME280;13080;42.608;23.362;2023-02-19T06:39:41;152920.84;;;7.19;64.18
10127;BME280;13080;42.608;23.362;2023-02-19T06:42:08;152926.03;;;7.21;63.90
10127;BME280;13080;42.608;23.362;2023-02-19T06:44:34;152961.00;;;7.35;62.71
10127;BME280;13080;42.608;23.362;2023-02-19T06:47:01;152964.91;;;7.37;62.95
10127;BME280;13080;42.608;23.362;2023-02-19T06:49:28;152961.00;;;7.35;63.05
10127;BME280;13080;42.608;23.362;2023-02-19T06:51:55;152961.00;;;7.35;63.49
10127;BME280;13080;42.608;23.362;2023-02-19T06:54:23;152968.81;;;7.38;63.47
10127;BME280;13080;42.608;23.362;2023-02-19T06:56:51;152971.38;;;7.39;63.08
10127;BME280;13080;42.608;23.362;2023-02-19T06:59:17;152975.28;;;7.41;63.88
10127;BME280;13080;42.608;23.362;2023-02-19T07:01:45;152980.47;;;7.43;63.22
10127;BME280;13080;42.608;23.362;2023-02-19T07:04:12;152984.38;;;7.44;63.04
10127;BME280;13080;42.608;23.362;2023-02-19T07:06:38;152997.31;;;7.49;62.72
10127;BME280;13080;42.608;23.362;2023-02-19T07:09:06;152994.69;;;7.48;63.02
10127;BME280;13080;42.608;23.362;2023-02-19T07:11:38;152996.03;;;7.49;63.44
10127;BME280;13080;42.608;23.362;2023-02-19T07:14:06;153007.69;;;7.54;63.07
10127;BME280;13080;42.608;23.362;2023-02-19T07:16:34;153016.72;;;7.57;63.51
10127;BME280;13080;42.608;23.362;2023-02-19T07:19:01;153029.72;;;7.62;62.60
10127;BME280;13080;42.608;23.362;2023-02-19T07:21:29;153050.44;;;7.70;62.25
10127;BME280;13080;42.608;23.362;2023-02-19T07:24:02;153077.66;;;7.81;61.59
10127;BME280;13080;42.608;23.362;2023-02-19T07:26:29;153120.44;;;7.98;60.30
10127;BME280;13080;42.608;23.362;2023-02-19T07:28:57;153128.22;;;8.01;60.54
10127;BME280;13080;42.608;23.362;2023-02-19T07:31:24;153150.25;;;8.10;60.30
10127;BME280;13080;42.608;23.362;2023-02-19T07:33:51;153150.25;;;8.10;60.98
10127;BME280;13080;42.608;23.362;2023-02-19T07:36:18;153167.09;;;8.17;61.55
10127;BME280;13080;42.608;23.362;2023-02-19T07:38:46;153191.72;;;8.26;60.06
10127;BME280;13080;42.608;23.362;2023-02-19T07:41:13;153221.53;;;8.38;59.08
10127;BME280;13080;42.608;23.362;2023-02-19T07:43:39;153241.06;;;8.46;59.26
10127;BME280;13080;42.608;23.362;2023-02-19T07:46:09;153264.38;;;8.55;58.99
10127;BME280;13080;42.608;23.362;2023-02-19T07:48:37;153286.44;;;8.64;58.24
10127;BME280;13080;42.608;23.362;2023-02-19T07:51:06;153311.06;;;8.73;58.33
10127;BME280;13080;42.608;23.362;2023-02-19T07:53:34;153333.13;;;8.82;57.99
10127;BME280;13080;42.608;23.362;2023-02-19T07:56:02;153338.31;;;8.84;58.43
10127;BME280;13080;42.608;23.362;2023-02-19T07:58:30;153355.19;;;8.91;57.86
10127;BME280;13080;42.608;23.362;2023-02-19T08:01:04;153357.75;;;8.92;58.06
10127;BME280;13080;42.608;23.362;2023-02-19T08:03:33;153375.94;;;8.99;58.42
10127;BME280;13080;42.608;23.362;2023-02-19T08:05:58;153400.59;;;9.09;57.41
10127;BME280;13080;42.608;23.362;2023-02-19T08:08:27;153417.44;;;9.15;57.01
10127;BME280;13080;42.608;23.362;2023-02-19T08:10:54;153433.03;;;9.22;57.20
10127;BME280;13080;42.608;23.362;2023-02-19T08:13:38;153449.91;;;9.28;55.82
10127;BME280;13080;42.608;23.362;2023-02-19T08:16:10;153478.44;;;9.40;55.58
10127;BME280;13080;42.608;23.362;2023-02-19T08:18:39;153500.47;;;9.48;56.98
10127;BME280;13080;42.608;23.362;2023-02-19T08:21:06;153525.16;;;9.58;56.40
10127;BME280;13080;42.608;23.362;2023-02-19T08:23:32;153542.03;;;9.65;56.67
10127;BME280;13080;42.608;23.362;2023-02-19T08:26:00;153558.91;;;9.71;56.24
10127;BME280;13080;42.608;23.362;2023-02-19T08:28:27;153590.03;;;9.84;55.03
10127;BME280;13080;42.608;23.362;2023-02-19T08:30:58;153601.69;;;9.88;53.97
10127;BME280;13080;42.608;23.362;2023-02-19T08:33:25;153613.38;;;9.93;54.92
10127;BME280;13080;42.608;23.362;2023-02-19T08:35:53;153623.78;;;9.97;54.28
10127;BME280;13080;42.608;23.362;2023-02-19T08:38:20;153648.47;;;10.07;53.79
10127;BME280;13080;42.608;23.362;2023-02-19T08:40:47;153679.63;;;10.19;53.15
10127;BME280;13080;42.608;23.362;2023-02-19T08:43:15;153710.84;;;10.31;53.11
10127;BME280;13080;42.608;23.362;2023-02-19T08:45:44;153729.03;;;10.38;52.76
10127;BME280;13080;42.608;23.362;2023-02-19T08:48:12;153757.59;;;10.50;51.60
10127;BME280;13080;42.608;23.362;2023-02-19T08:50:39;153758.88;;;10.50;52.27
10127;BME280;13080;42.608;23.362;2023-02-19T08:53:07;153779.66;;;10.58;51.97
10127;BME280;13080;42.608;23.362;2023-02-19T08:55:36;153803.06;;;10.68;52.55
10127;BME280;13080;42.608;23.362;2023-02-19T08:58:03;153852.38;;;10.87;51.32
10127;BME280;13080;42.608;23.362;2023-02-19T09:00:30;153865.41;;;10.92;51.58
10127;BME280;13080;42.608;23.362;2023-02-19T09:02:57;153899.19;;;11.06;51.15
10127;BME280;13080;42.608;23.362;2023-02-19T09:05:24;153903.03;;;11.07;52.27
10127;BME280;13080;42.608;23.362;2023-02-19T09:07:51;153903.03;;;11.07;51.61
10127;BME280;13080;42.608;23.362;2023-02-19T09:10:19;153906.97;;;11.09;51.98
10127;BME280;13080;42.608;23.362;2023-02-19T09:12:46;153932.97;;;11.19;51.87
10127;BME280;13080;42.608;23.362;2023-02-19T09:15:13;153957.63;;;11.29;51.52
10127;BME280;13080;42.608;23.362;2023-02-19T09:17:40;153971.91;;;11.34;51.33
10127;BME280;13080;42.608;23.362;2023-02-19T09:20:07;154004.41;;;11.47;50.86
10127;BME280;13080;42.608;23.362;2023-02-19T09:22:34;154018.72;;;11.53;51.17
10127;BME280;13080;42.608;23.362;2023-02-19T09:25:01;154026.50;;;11.56;51.20
10127;BME280;13080;42.608;23.362;2023-02-19T09:27:29;154047.31;;;11.64;51.47
10127;BME280;13080;42.608;23.362;2023-02-19T09:29:57;154051.19;;;11.65;50.90
10127;BME280;13080;42.608;23.362;2023-02-19T09:32:24;154079.78;;;11.77;50.88
10127;BME280;13080;42.608;23.362;2023-02-19T09:34:51;154091.47;;;11.81;49.26
10127;BME280;13080;42.608;23.362;2023-02-19T09:37:17;154112.34;;;11.90;50.68
10127;BME280;13080;42.608;23.362;2023-02-19T09:39:44;154140.94;;;12.01;49.25
10127;BME280;13080;42.608;23.362;2023-02-19T09:42:13;154159.16;;;12.08;49.76
10127;BME280;13080;42.608;23.362;2023-02-19T09:44:44;154159.16;;;12.08;49.38
10127;BME280;13080;42.608;23.362;2023-02-19T09:47:15;154157.84;;;12.07;48.88
10127;BME280;13080;42.608;23.362;2023-02-19T09:49:45;154189.09;;;12.20;48.50
10127;BME280;13080;42.608;23.362;2023-02-19T09:52:18;154226.78;;;12.35;47.64
10127;BME280;13080;42.608;23.362;2023-02-19T09:54:53;154271.00;;;12.52;47.27
10127;BME280;13080;42.608;23.362;2023-02-19T09:57:23;154267.09;;;12.51;46.90
10127;BME280;13080;42.608;23.362;2023-02-19T09:59:56;154282.69;;;12.57;48.03
10127;BME280;13080;42.608;23.362;2023-02-19T10:02:25;154326.94;;;12.74;46.22
10127;BME280;13080;42.608;23.362;2023-02-19T10:04:56;154364.63;;;12.89;46.88
10127;BME280;13080;42.608;23.362;2023-02-19T10:07:24;154371.19;;;12.92;46.50
10127;BME280;13080;42.608;23.362;2023-02-19T10:09:54;154360.78;;;12.87;45.96
10127;BME280;13080;42.608;23.362;2023-02-19T10:12:25;154376.41;;;12.94;46.02
10127;BME280;13080;42.608;23.362;2023-02-19T10:14:58;154368.56;;;12.90;45.51
10127;BME280;13080;42.608;23.362;2023-02-19T10:17:30;154372.47;;;12.92;46.03
10127;BME280;13080;42.608;23.362;2023-02-19T10:19:59;154376.41;;;12.94;45.66
10127;BME280;13080;42.608;23.362;2023-02-19T10:22:29;154375.06;;;12.93;45.46
10127;BME280;13080;42.608;23.362;2023-02-19T10:24:56;154382.91;;;12.96;45.90
10127;BME280;13080;42.608;23.362;2023-02-19T10:27:26;154381.56;;;12.96;45.65
10127;BME280;13080;42.608;23.362;2023-02-19T10:29:56;154388.09;;;12.98;45.74
10127;BME280;13080;42.608;23.362;2023-02-19T10:32:25;154412.81;;;13.08;45.71
10127;BME280;13080;42.608;23.362;2023-02-19T10:35:09;154401.09;;;13.03;45.95
10127;BME280;13080;42.608;23.362;2023-02-19T10:37:41;154373.75;;;12.93;45.50
10127;BME280;13080;42.608;23.362;2023-02-19T10:40:14;154347.72;;;12.82;46.38
10127;BME280;13080;42.608;23.362;2023-02-19T10:42:45;154351.63;;;12.84;46.74
10127;BME280;13080;42.608;23.362;2023-02-19T10:45:18;154388.09;;;12.98;45.42
10127;BME280;13080;42.608;23.362;2023-02-19T10:47:47;154377.69;;;12.94;46.43
10127;BME280;13080;42.608;23.362;2023-02-19T10:50:25;154378.97;;;12.95;45.59
10127;BME280;13080;42.608;23.362;2023-02-19T10:52:52;154403.69;;;13.04;45.59
10127;BME280;13080;42.608;23.362;2023-02-19T10:55:27;154416.72;;;13.09;45.34
10127;BME280;13080;42.608;23.362;2023-02-19T10:57:54;154421.94;;;13.12;46.38
10127;BME280;13080;42.608;23.362;2023-02-19T11:00:24;154414.09;;;13.08;46.65
10127;BME280;13080;42.608;23.362;2023-02-19T11:03:13;154425.81;;;13.13;45.68
10127;BME280;13080;42.608;23.362;2023-02-19T11:05:49;154441.44;;;13.19;45.43
10127;BME280;13080;42.608;23.362;2023-02-19T11:08:20;154436.22;;;13.17;44.66
10127;BME280;13080;42.608;23.362;2023-02-19T11:10:48;154419.31;;;13.10;46.09
10127;BME280;13080;42.608;23.362;2023-02-19T11:13:20;154463.63;;;13.28;45.16
10127;BME280;13080;42.608;23.362;2023-02-19T11:15:54;154467.47;;;13.29;44.70
10127;BME280;13080;42.608;23.362;2023-02-19T11:18:22;154493.53;;;13.40;43.86
10127;BME280;13080;42.608;23.362;2023-02-19T11:20:52;154481.81;;;13.35;44.61
10127;BME280;13080;42.608;23.362;2023-02-19T11:23:23;154464.91;;;13.28;44.23
10127;BME280;13080;42.608;23.362;2023-02-19T11:25:52;154472.69;;;13.31;44.98
10127;BME280;13080;42.608;23.362;2023-02-19T11:28:27;154509.16;;;13.46;44.33
10127;BME280;13080;42.608;23.362;2023-02-19T11:31:12;154527.38;;;13.53;44.87
10127;BME280;13080;42.608;23.362;2023-02-19T11:33:42;154535.16;;;13.56;44.33
10127;BME280;13080;42.608;23.362;2023-02-19T11:36:37;154540.38;;;13.58;44.27
10127;BME280;13080;42.608;23.362;2023-02-19T11:39:19;154554.72;;;13.64;43.62
10127;BME280;13080;42.608;23.362;2023-02-19T11:42:11;154546.88;;;13.61;44.26
10127;BME280;13080;42.608;23.362;2023-02-19T11:44:49;154537.78;;;13.57;43.41
10127;BME280;13080;42.608;23.362;2023-02-19T11:50:20;154544.28;;;13.60;43.22
10127;BME280;13080;42.608;23.362;2023-02-19T11:52:56;154509.16;;;13.46;43.99
10127;BME280;13080;42.608;23.362;2023-02-19T11:55:34;154528.66;;;13.54;43.61
10127;BME280;13080;42.608;23.362;2023-02-19T11:58:21;154527.38;;;13.53;43.49
10127;BME280;13080;42.608;23.362;2023-02-19T12:01:00;154535.16;;;13.56;43.95
10127;BME280;13080;42.608;23.362;2023-02-19T12:03:46;154526.09;;;13.52;44.08
10127;BME280;13080;42.608;23.362;2023-02-19T12:06:22;154516.94;;;13.49;44.30
10127;BME280;13080;42.608;23.362;2023-02-19T12:09:23;154520.88;;;13.50;44.54
10127;BME280;13080;42.608;23.362;2023-02-19T12:12:01;154513.03;;;13.47;43.58
10127;BME280;13080;42.608;23.362;2023-02-19T12:14:44;154572.94;;;13.71;43.12
10127;BME280;13080;42.608;23.362;2023-02-19T12:17:18;154584.66;;;13.76;43.56
10127;BME280;13080;42.608;23.362;2023-02-19T12:20:00;154602.88;;;13.83;43.60
10127;BME280;13080;42.608;23.362;2023-02-19T12:22:32;154626.28;;;13.92;42.57
10127;BME280;13080;42.608;23.362;2023-02-19T12:25:37;154636.72;;;13.96;42.04
10127;BME280;13080;42.608;23.362;2023-02-19T12:28:29;154639.34;;;13.97;41.95
10127;BME280;13080;42.608;23.362;2023-02-19T12:31:18;154606.78;;;13.84;42.73
10127;BME280;13080;42.608;23.362;2023-02-19T12:37:11;154636.72;;;13.96;42.53
10127;BME280;13080;42.608;23.362;2023-02-19T12:39:44;154652.34;;;14.02;41.93
10127;BME280;13080;42.608;23.362;2023-02-19T12:42:26;154658.84;;;14.05;41.75
10127;BME280;13080;42.608;23.362;2023-02-19T12:44:57;154658.84;;;14.05;41.97
10127;BME280;13080;42.608;23.362;2023-02-19T12:47:28;154670.56;;;14.09;42.21
10127;BME280;13080;42.608;23.362;2023-02-19T12:50:02;154662.78;;;14.06;42.48
10127;BME280;13080;42.608;23.362;2023-02-19T12:52:35;154654.94;;;14.03;42.36
10127;BME280;13080;42.608;23.362;2023-02-19T12:55:12;154657.56;;;14.04;42.83
10127;BME280;13080;42.608;23.362;2023-02-19T12:57:45;154675.78;;;14.11;42.27
10127;BME280;13080;42.608;23.362;2023-02-19T13:00:24;154660.16;;;14.05;41.55
10127;BME280;13080;42.608;23.362;2023-02-19T13:02:58;154673.19;;;14.10;41.40
10127;BME280;13080;42.608;23.362;2023-02-19T13:05:37;154665.38;;;14.07;41.97
10127;BME280;13080;42.608;23.362;2023-02-19T13:08:13;154669.28;;;14.09;41.66
10127;BME280;13080;42.608;23.362;2023-02-19T13:10:44;154652.34;;;14.02;42.38
10127;BME280;13080;42.608;23.362;2023-02-19T13:13:18;154644.56;;;13.99;42.71